FAPP

Details ICAO FAPP
Name Polokwane Intl
Region South Africa
Timezone Africa/Johannesburg (UTC+2.0)
Plans Departing 4
Arriving 9
Stats Elevation 4,076 ft / 1,242 m (AMSL)
Location -23.849664° 29.456488°
Runways 2
Magnetic Variation 15.807° W
Sunrise 2017-12-18 03:11:57 UTC / 2017-12-18 05:11:57 Local
Sunset 2017-12-18 16:48:15 UTC / 2017-12-18 18:48:15 Local
Advertisement - Login to hide

Runways

ID Width Length Bearing (true) Bearing (mag) Surface Threshold Offset Overrun Length
01 148 ft / 45 m 8,406 ft / 2,562 m 359.00° 14.81° Asphalt 0 ft / 0 m 328 ft / 100 m
05 148 ft / 45 m 7,619 ft / 2,322 m 38.00° 53.81° Asphalt 0 ft / 0 m 0 ft / 0 m
19 148 ft / 45 m 8,406 ft / 2,562 m 179.00° 194.81° Asphalt 0 ft / 0 m 328 ft / 100 m
23 148 ft / 45 m 7,619 ft / 2,322 m 218.00° 233.81° Asphalt 0 ft / 0 m 2,804 ft / 855 m

Map

Weather


0- 5 10 15 20 25 30 35+ Temperature / ° C

Clouds and Precipitation
Forecast for 2017-12-18 12:00 UTC. Updated 2 hours ago

Ground ~20,000 ft ~40,000 ft Winds

METAR

FAPP 181100Z 02005KT 9999 FEW040 30/09 Q1017 NOSIG

TAF

Not found

Frequencies

Tower 124.30 MHz TWR
Warning: Do not use this data for real-world aviation or navigation. No guarantee of current accuracy is given.